sensor_id;sensor_type;location;lat;lon;timestamp;temperature;humidity
28947;DHT22;16052;50.930;5.326;2023-06-22T00:00:55;25.30;1.00
28947;DHT22;16052;50.930;5.326;2023-06-22T00:03:22;25.10;1.00
28947;DHT22;16052;50.930;5.326;2023-06-22T00:05:48;24.90;1.00
28947;DHT22;16052;50.930;5.326;2023-06-22T00:08:15;25.00;1.00
28947;DHT22;16052;50.930;5.326;2023-06-22T00:10:41;25.10;1.00
28947;DHT22;16052;50.930;5.326;2023-06-22T00:13:07;25.10;1.00
28947;DHT22;16052;50.930;5.326;2023-06-22T00:15:34;24.90;1.00
28947;DHT22;16052;50.930;5.326;2023-06-22T00:18:00;24.90;1.00
28947;DHT22;16052;50.930;5.326;2023-06-22T00:20:27;25.00;1.00
28947;DHT22;16052;50.930;5.326;2023-06-22T00:22:54;25.00;1.00
28947;DHT22;16052;50.930;5.326;2023-06-22T00:25:20;25.00;1.00
28947;DHT22;16052;50.930;5.326;2023-06-22T00:27:45;25.10;1.00
28947;DHT22;16052;50.930;5.326;2023-06-22T00:30:11;24.90;1.00
28947;DHT22;16052;50.930;5.326;2023-06-22T00:32:37;24.80;1.00
28947;DHT22;16052;50.930;5.326;2023-06-22T00:35:03;24.80;1.00
28947;DHT22;16052;50.930;5.326;2023-06-22T00:37:28;24.70;1.00
28947;DHT22;16052;50.930;5.326;2023-06-22T00:39:55;24.80;1.00
28947;DHT22;16052;50.930;5.326;2023-06-22T00:42:21;24.80;1.00
28947;DHT22;16052;50.930;5.326;2023-06-22T00:44:47;24.80;1.00
28947;DHT22;16052;50.930;5.326;2023-06-22T00:47:17;24.80;1.00
28947;DHT22;16052;50.930;5.326;2023-06-22T00:49:43;24.70;1.00
28947;DHT22;16052;50.930;5.326;2023-06-22T00:52:09;24.70;1.00
28947;DHT22;16052;50.930;5.326;2023-06-22T00:54:40;24.70;1.00
28947;DHT22;16052;50.930;5.326;2023-06-22T00:57:09;24.90;1.00
28947;DHT22;16052;50.930;5.326;2023-06-22T00:59:37;24.90;1.00
28947;DHT22;16052;50.930;5.326;2023-06-22T01:02:03;24.90;1.00
28947;DHT22;16052;50.930;5.326;2023-06-22T01:04:35;24.80;1.00
28947;DHT22;16052;50.930;5.326;2023-06-22T01:09:33;24.70;1.00
28947;DHT22;16052;50.930;5.326;2023-06-22T01:12:03;24.70;1.00
28947;DHT22;16052;50.930;5.326;2023-06-22T01:14:43;24.70;1.00
28947;DHT22;16052;50.930;5.326;2023-06-22T01:17:13;24.80;1.00
28947;DHT22;16052;50.930;5.326;2023-06-22T01:19:54;24.70;1.00
28947;DHT22;16052;50.930;5.326;2023-06-22T01:22:33;24.80;1.00
28947;DHT22;16052;50.930;5.326;2023-06-22T01:25:11;24.70;1.00
28947;DHT22;16052;50.930;5.326;2023-06-22T01:30:28;24.40;1.00
28947;DHT22;16052;50.930;5.326;2023-06-22T01:32:58;24.30;1.00
28947;DHT22;16052;50.930;5.326;2023-06-22T01:35:24;24.30;1.00
28947;DHT22;16052;50.930;5.326;2023-06-22T01:37:50;24.30;1.00
28947;DHT22;16052;50.930;5.326;2023-06-22T01:40:16;24.30;1.00
28947;DHT22;16052;50.930;5.326;2023-06-22T01:42:43;24.30;1.00
28947;DHT22;16052;50.930;5.326;2023-06-22T01:45:10;24.40;1.00
28947;DHT22;16052;50.930;5.326;2023-06-22T01:47:36;24.30;1.00
28947;DHT22;16052;50.930;5.326;2023-06-22T01:50:04;24.30;1.00
28947;DHT22;16052;50.930;5.326;2023-06-22T01:52:30;24.30;1.00
28947;DHT22;16052;50.930;5.326;2023-06-22T01:55:00;24.20;1.00
28947;DHT22;16052;50.930;5.326;2023-06-22T01:57:26;24.30;1.00
28947;DHT22;16052;50.930;5.326;2023-06-22T02:00:00;24.40;1.00
28947;DHT22;16052;50.930;5.326;2023-06-22T02:02:33;24.50;1.00
28947;DHT22;16052;50.930;5.326;2023-06-22T02:05:05;24.30;1.00
28947;DHT22;16052;50.930;5.326;2023-06-22T02:07:36;23.70;1.00
28947;DHT22;16052;50.930;5.326;2023-06-22T02:10:06;23.40;1.00
28947;DHT22;16052;50.930;5.326;2023-06-22T02:12:33;23.50;1.00
28947;DHT22;16052;50.930;5.326;2023-06-22T02:15:00;23.40;1.00
28947;DHT22;16052;50.930;5.326;2023-06-22T02:17:26;23.50;1.00
28947;DHT22;16052;50.930;5.326;2023-06-22T02:19:52;23.70;1.00
28947;DHT22;16052;50.930;5.326;2023-06-22T02:22:18;23.80;1.00
28947;DHT22;16052;50.930;5.326;2023-06-22T02:24:44;23.60;1.00
28947;DHT22;16052;50.930;5.326;2023-06-22T02:27:10;23.70;1.00
28947;DHT22;16052;50.930;5.326;2023-06-22T02:29:36;23.70;1.00
28947;DHT22;16052;50.930;5.326;2023-06-22T02:32:02;23.70;1.00
28947;DHT22;16052;50.930;5.326;2023-06-22T02:34:28;23.90;1.00
28947;DHT22;16052;50.930;5.326;2023-06-22T02:36:53;23.90;1.00
28947;DHT22;16052;50.930;5.326;2023-06-22T02:39:23;24.00;1.00
28947;DHT22;16052;50.930;5.326;2023-06-22T02:41:50;23.70;1.00
28947;DHT22;16052;50.930;5.326;2023-06-22T02:44:17;23.70;1.00
28947;DHT22;16052;50.930;5.326;2023-06-22T02:46:43;23.60;1.00
28947;DHT22;16052;50.930;5.326;2023-06-22T02:49:10;23.70;1.00
28947;DHT22;16052;50.930;5.326;2023-06-22T02:51:37;24.00;1.00
28947;DHT22;16052;50.930;5.326;2023-06-22T02:54:05;24.10;1.00
28947;DHT22;16052;50.930;5.326;2023-06-22T02:56:31;23.90;1.00
28947;DHT22;16052;50.930;5.326;2023-06-22T02:58:57;24.00;1.00
28947;DHT22;16052;50.930;5.326;2023-06-22T03:01:29;24.00;1.00
28947;DHT22;16052;50.930;5.326;2023-06-22T03:03:56;24.00;1.00
28947;DHT22;16052;50.930;5.326;2023-06-22T03:06:23;23.90;1.00
28947;DHT22;16052;50.930;5.326;2023-06-22T03:08:58;23.80;1.00
28947;DHT22;16052;50.930;5.326;2023-06-22T03:11:24;23.70;4.60
28947;DHT22;16052;50.930;5.326;2023-06-22T03:13:49;23.70;5.20
28947;DHT22;16052;50.930;5.326;2023-06-22T03:16:17;23.80;3.90
28947;DHT22;16052;50.930;5.326;2023-06-22T03:18:43;23.90;3.20
28947;DHT22;16052;50.930;5.326;2023-06-22T03:21:09;23.70;8.50
28947;DHT22;16052;50.930;5.326;2023-06-22T03:23:34;23.70;9.70
28947;DHT22;16052;50.930;5.326;2023-06-22T03:26:00;23.80;9.90
28947;DHT22;16052;50.930;5.326;2023-06-22T03:28:26;23.70;11.20
28947;DHT22;16052;50.930;5.326;2023-06-22T03:30:52;23.70;11.40
28947;DHT22;16052;50.930;5.326;2023-06-22T03:33:17;23.70;13.30
28947;DHT22;16052;50.930;5.326;2023-06-22T03:35:43;23.70;13.00
28947;DHT22;16052;50.930;5.326;2023-06-22T03:38:08;23.60;14.20
28947;DHT22;16052;50.930;5.326;2023-06-22T03:40:34;23.60;17.40
28947;DHT22;16052;50.930;5.326;2023-06-22T03:43:00;23.50;19.40
28947;DHT22;16052;50.930;5.326;2023-06-22T03:45:25;23.50;19.40
28947;DHT22;16052;50.930;5.326;2023-06-22T03:47:51;23.50;22.00
28947;DHT22;16052;50.930;5.326;2023-06-22T03:50:17;23.50;21.50
28947;DHT22;16052;50.930;5.326;2023-06-22T03:52:45;23.40;23.40
28947;DHT22;16052;50.930;5.326;2023-06-22T03:55:11;23.50;22.80
28947;DHT22;16052;50.930;5.326;2023-06-22T03:57:37;23.60;21.10
28947;DHT22;16052;50.930;5.326;2023-06-22T04:00:03;23.60;21.70
28947;DHT22;16052;50.930;5.326;2023-06-22T04:02:31;23.60;21.30
28947;DHT22;16052;50.930;5.326;2023-06-22T04:04:56;23.50;22.30
28947;DHT22;16052;50.930;5.326;2023-06-22T04:07:22;23.40;25.20
28947;DHT22;16052;50.930;5.326;2023-06-22T04:09:48;23.30;26.40
28947;DHT22;16052;50.930;5.326;2023-06-22T04:12:13;23.10;29.80
28947;DHT22;16052;50.930;5.326;2023-06-22T04:14:39;23.00;33.20
28947;DHT22;16052;50.930;5.326;2023-06-22T04:17:05;22.80;37.90
28947;DHT22;16052;50.930;5.326;2023-06-22T04:19:30;22.50;47.50
28947;DHT22;16052;50.930;5.326;2023-06-22T04:21:56;22.60;45.10
28947;DHT22;16052;50.930;5.326;2023-06-22T04:24:22;22.70;44.60
28947;DHT22;16052;50.930;5.326;2023-06-22T04:26:47;22.90;39.40
28947;DHT22;16052;50.930;5.326;2023-06-22T04:29:13;23.00;35.10
28947;DHT22;16052;50.930;5.326;2023-06-22T04:31:39;23.20;28.80
28947;DHT22;16052;50.930;5.326;2023-06-22T04:34:05;23.40;26.10
28947;DHT22;16052;50.930;5.326;2023-06-22T04:36:39;23.40;27.10
28947;DHT22;16052;50.930;5.326;2023-06-22T04:41:32;23.30;29.80
28947;DHT22;16052;50.930;5.326;2023-06-22T04:44:15;23.30;31.40
28947;DHT22;16052;50.930;5.326;2023-06-22T04:46:54;23.30;32.90
28947;DHT22;16052;50.930;5.326;2023-06-22T04:49:27;23.50;30.00
28947;DHT22;16052;50.930;5.326;2023-06-22T04:52:03;23.60;30.50
28947;DHT22;16052;50.930;5.326;2023-06-22T04:54:29;23.70;35.10
28947;DHT22;16052;50.930;5.326;2023-06-22T04:57:01;23.80;38.60
28947;DHT22;16052;50.930;5.326;2023-06-22T04:59:30;23.90;34.60
28947;DHT22;16052;50.930;5.326;2023-06-22T05:02:05;23.80;38.00
28947;DHT22;16052;50.930;5.326;2023-06-22T05:04:31;23.80;38.10
28947;DHT22;16052;50.930;5.326;2023-06-22T05:06:59;23.90;37.30
28947;DHT22;16052;50.930;5.326;2023-06-22T05:09:28;23.80;44.70
28947;DHT22;16052;50.930;5.326;2023-06-22T05:11:54;23.50;51.40
28947;DHT22;16052;50.930;5.326;2023-06-22T05:14:21;23.40;58.40
28947;DHT22;16052;50.930;5.326;2023-06-22T05:16:48;23.20;62.50
28947;DHT22;16052;50.930;5.326;2023-06-22T05:19:14;23.10;68.70
28947;DHT22;16052;50.930;5.326;2023-06-22T05:21:40;23.20;69.70
28947;DHT22;16052;50.930;5.326;2023-06-22T05:24:06;23.30;67.30
28947;DHT22;16052;50.930;5.326;2023-06-22T05:26:33;23.20;73.00
28947;DHT22;16052;50.930;5.326;2023-06-22T05:29:00;23.20;75.70
28947;DHT22;16052;50.930;5.326;2023-06-22T05:31:26;23.10;77.70
28947;DHT22;16052;50.930;5.326;2023-06-22T05:33:53;23.00;82.10
28947;DHT22;16052;50.930;5.326;2023-06-22T05:36:20;23.10;80.90
28947;DHT22;16052;50.930;5.326;2023-06-22T05:38:47;23.00;84.50
28947;DHT22;16052;50.930;5.326;2023-06-22T05:41:12;22.80;89.90
28947;DHT22;16052;50.930;5.326;2023-06-22T05:43:39;22.80;90.90
28947;DHT22;16052;50.930;5.326;2023-06-22T05:46:05;22.80;92.10
28947;DHT22;16052;50.930;5.326;2023-06-22T05:48:30;23.10;89.10
28947;DHT22;16052;50.930;5.326;2023-06-22T05:50:56;23.10;85.70
28947;DHT22;16052;50.930;5.326;2023-06-22T05:53:22;23.10;88.70
28947;DHT22;16052;50.930;5.326;2023-06-22T05:55:48;23.00;90.70
28947;DHT22;16052;50.930;5.326;2023-06-22T05:58:13;23.00;92.10
28947;DHT22;16052;50.930;5.326;2023-06-22T06:00:40;22.90;91.90
28947;DHT22;16052;50.930;5.326;2023-06-22T06:03:07;22.90;92.60
28947;DHT22;16052;50.930;5.326;2023-06-22T06:05:33;22.90;92.50
28947;DHT22;16052;50.930;5.326;2023-06-22T06:08:04;22.90;93.70
28947;DHT22;16052;50.930;5.326;2023-06-22T06:10:31;23.00;93.50
28947;DHT22;16052;50.930;5.326;2023-06-22T06:12:57;23.00;93.20
28947;DHT22;16052;50.930;5.326;2023-06-22T06:15:23;22.90;95.00
28947;DHT22;16052;50.930;5.326;2023-06-22T06:17:53;23.00;93.60
28947;DHT22;16052;50.930;5.326;2023-06-22T06:20:23;23.10;94.00
28947;DHT22;16052;50.930;5.326;2023-06-22T06:22:49;23.10;93.10
28947;DHT22;16052;50.930;5.326;2023-06-22T06:25:15;23.10;91.80
28947;DHT22;16052;50.930;5.326;2023-06-22T06:27:47;23.20;92.20
28947;DHT22;16052;50.930;5.326;2023-06-22T06:30:15;23.10;93.70
28947;DHT22;16052;50.930;5.326;2023-06-22T06:32:41;23.20;92.10
28947;DHT22;16052;50.930;5.326;2023-06-22T06:35:08;23.30;91.60
28947;DHT22;16052;50.930;5.326;2023-06-22T06:37:39;23.30;89.30
28947;DHT22;16052;50.930;5.326;2023-06-22T06:40:06;23.20;90.60
28947;DHT22;16052;50.930;5.326;2023-06-22T06:42:39;23.20;90.00
28947;DHT22;16052;50.930;5.326;2023-06-22T06:45:08;23.20;90.10
28947;DHT22;16052;50.930;5.326;2023-06-22T06:47:34;23.20;86.90
28947;DHT22;16052;50.930;5.326;2023-06-22T06:49:59;23.20;86.80
28947;DHT22;16052;50.930;5.326;2023-06-22T06:52:25;23.20;86.90
28947;DHT22;16052;50.930;5.326;2023-06-22T06:54:52;23.30;86.50
28947;DHT22;16052;50.930;5.326;2023-06-22T06:57:20;23.40;83.80
28947;DHT22;16052;50.930;5.326;2023-06-22T06:59:46;23.40;80.50
28947;DHT22;16052;50.930;5.326;2023-06-22T07:02:12;23.40;78.70
28947;DHT22;16052;50.930;5.326;2023-06-22T07:04:37;23.40;79.20
28947;DHT22;16052;50.930;5.326;2023-06-22T07:07:03;23.50;78.60
28947;DHT22;16052;50.930;5.326;2023-06-22T07:09:29;23.50;76.40
28947;DHT22;16052;50.930;5.326;2023-06-22T07:11:54;23.50;74.20
28947;DHT22;16052;50.930;5.326;2023-06-22T07:14:20;23.50;76.00
28947;DHT22;16052;50.930;5.326;2023-06-22T07:16:45;23.50;73.80
28947;DHT22;16052;50.930;5.326;2023-06-22T07:19:12;23.40;73.40
28947;DHT22;16052;50.930;5.326;2023-06-22T07:21:38;23.40;76.60
28947;DHT22;16052;50.930;5.326;2023-06-22T07:24:05;23.40;77.80
28947;DHT22;16052;50.930;5.326;2023-06-22T07:26:31;23.40;75.00
28947;DHT22;16052;50.930;5.326;2023-06-22T07:28:57;23.40;70.10
28947;DHT22;16052;50.930;5.326;2023-06-22T07:31:26;23.30;71.90
28947;DHT22;16052;50.930;5.326;2023-06-22T07:33:52;23.20;73.10
28947;DHT22;16052;50.930;5.326;2023-06-22T07:36:18;23.20;72.80
28947;DHT22;16052;50.930;5.326;2023-06-22T07:38:44;23.30;73.60
28947;DHT22;16052;50.930;5.326;2023-06-22T07:41:09;23.50;65.70
28947;DHT22;16052;50.930;5.326;2023-06-22T07:43:35;23.40;64.40
28947;DHT22;16052;50.930;5.326;2023-06-22T07:46:05;23.40;66.10
28947;DHT22;16052;50.930;5.326;2023-06-22T07:48:31;23.40;66.50
28947;DHT22;16052;50.930;5.326;2023-06-22T07:50:57;23.40;69.00
28947;DHT22;16052;50.930;5.326;2023-06-22T07:53:23;23.40;69.10
28947;DHT22;16052;50.930;5.326;2023-06-22T07:55:50;23.50;65.80
28947;DHT22;16052;50.930;5.326;2023-06-22T07:58:15;23.50;66.70
28947;DHT22;16052;50.930;5.326;2023-06-22T08:00:44;23.50;67.80
28947;DHT22;16052;50.930;5.326;2023-06-22T08:03:10;23.60;65.20
28947;DHT22;16052;50.930;5.326;2023-06-22T08:05:35;23.70;63.80
28947;DHT22;16052;50.930;5.326;2023-06-22T08:08:01;23.70;62.30
28947;DHT22;16052;50.930;5.326;2023-06-22T08:10:26;23.70;63.00
28947;DHT22;16052;50.930;5.326;2023-06-22T08:12:52;23.70;62.80
28947;DHT22;16052;50.930;5.326;2023-06-22T08:15:18;23.90;63.80
28947;DHT22;16052;50.930;5.326;2023-06-22T08:17:45;23.90;61.60
28947;DHT22;16052;50.930;5.326;2023-06-22T08:20:11;23.90;61.70
28947;DHT22;16052;50.930;5.326;2023-06-22T08:22:38;24.00;59.90
28947;DHT22;16052;50.930;5.326;2023-06-22T08:25:04;24.00;55.90
28947;DHT22;16052;50.930;5.326;2023-06-22T08:27:31;24.10;54.00
28947;DHT22;16052;50.930;5.326;2023-06-22T08:29:58;24.20;55.10
28947;DHT22;16052;50.930;5.326;2023-06-22T08:32:25;24.30;53.30
28947;DHT22;16052;50.930;5.326;2023-06-22T08:34:53;24.40;50.00
28947;DHT22;16052;50.930;5.326;2023-06-22T08:37:19;24.50;49.60
28947;DHT22;16052;50.930;5.326;2023-06-22T08:39:45;24.50;49.40
28947;DHT22;16052;50.930;5.326;2023-06-22T08:42:10;24.60;49.70
28947;DHT22;16052;50.930;5.326;2023-06-22T08:44:37;24.70;45.60
28947;DHT22;16052;50.930;5.326;2023-06-22T08:47:02;24.60;47.00
28947;DHT22;16052;50.930;5.326;2023-06-22T08:49:29;24.50;45.90
28947;DHT22;16052;50.930;5.326;2023-06-22T08:51:54;24.50;46.60
28947;DHT22;16052;50.930;5.326;2023-06-22T08:54:22;24.60;45.80
28947;DHT22;16052;50.930;5.326;2023-06-22T08:56:48;24.60;43.30
28947;DHT22;16052;50.930;5.326;2023-06-22T08:59:14;24.50;46.00
28947;DHT22;16052;50.930;5.326;2023-06-22T09:01:39;24.50;47.70
28947;DHT22;16052;50.930;5.326;2023-06-22T09:04:05;24.60;46.80
28947;DHT22;16052;50.930;5.326;2023-06-22T09:06:32;24.60;43.90
28947;DHT22;16052;50.930;5.326;2023-06-22T09:08:58;24.50;43.20
28947;DHT22;16052;50.930;5.326;2023-06-22T09:11:26;24.50;44.70
28947;DHT22;16052;50.930;5.326;2023-06-22T09:13:52;24.50;46.30
28947;DHT22;16052;50.930;5.326;2023-06-22T09:16:19;24.50;45.50
28947;DHT22;16052;50.930;5.326;2023-06-22T09:18:48;24.40;46.50
28947;DHT22;16052;50.930;5.326;2023-06-22T09:21:14;24.50;46.20
28947;DHT22;16052;50.930;5.326;2023-06-22T09:23:39;24.50;47.20
28947;DHT22;16052;50.930;5.326;2023-06-22T09:26:05;24.50;50.00
28947;DHT22;16052;50.930;5.326;2023-06-22T09:28:31;24.50;48.00
28947;DHT22;16052;50.930;5.326;2023-06-22T09:30:59;24.50;48.50
28947;DHT22;16052;50.930;5.326;2023-06-22T09:33:26;24.50;48.10
28947;DHT22;16052;50.930;5.326;2023-06-22T09:35:52;24.40;51.30
28947;DHT22;16052;50.930;5.326;2023-06-22T09:38:17;24.40;52.40
28947;DHT22;16052;50.930;5.326;2023-06-22T09:40:43;24.40;52.20
28947;DHT22;16052;50.930;5.326;2023-06-22T09:43:09;24.50;54.00
28947;DHT22;16052;50.930;5.326;2023-06-22T09:45:34;24.60;53.00
28947;DHT22;16052;50.930;5.326;2023-06-22T09:48:00;24.60;52.40
28947;DHT22;16052;50.930;5.326;2023-06-22T09:50:26;24.60;52.30
28947;DHT22;16052;50.930;5.326;2023-06-22T09:52:51;24.50;55.00
28947;DHT22;16052;50.930;5.326;2023-06-22T09:55:21;24.50;55.90
28947;DHT22;16052;50.930;5.326;2023-06-22T09:57:47;24.40;57.80
28947;DHT22;16052;50.930;5.326;2023-06-22T10:00:14;24.40;62.20
28947;DHT22;16052;50.930;5.326;2023-06-22T10:02:44;24.50;68.40
28947;DHT22;16052;50.930;5.326;2023-06-22T10:05:10;24.70;67.00
28947;DHT22;16052;50.930;5.326;2023-06-22T10:07:36;24.70;69.80
28947;DHT22;16052;50.930;5.326;2023-06-22T10:10:08;24.70;75.40
28947;DHT22;16052;50.930;5.326;2023-06-22T10:12:34;24.60;77.70
28947;DHT22;16052;50.930;5.326;2023-06-22T10:14:59;24.60;86.40
28947;DHT22;16052;50.930;5.326;2023-06-22T10:17:25;24.70;75.60
28947;DHT22;16052;50.930;5.326;2023-06-22T10:19:51;24.50;79.70
28947;DHT22;16052;50.930;5.326;2023-06-22T10:22:17;24.50;88.40
28947;DHT22;16052;50.930;5.326;2023-06-22T10:24:43;24.50;90.00
28947;DHT22;16052;50.930;5.326;2023-06-22T10:27:13;24.30;91.70
28947;DHT22;16052;50.930;5.326;2023-06-22T10:29:39;24.30;95.20
28947;DHT22;16052;50.930;5.326;2023-06-22T10:32:05;24.30;96.10
28947;DHT22;16052;50.930;5.326;2023-06-22T10:34:31;24.30;96.60
28947;DHT22;16052;50.930;5.326;2023-06-22T10:36:57;24.30;96.80
28947;DHT22;16052;50.930;5.326;2023-06-22T10:39:22;24.40;97.10
28947;DHT22;16052;50.930;5.326;2023-06-22T10:41:48;24.30;96.30
28947;DHT22;16052;50.930;5.326;2023-06-22T10:44:13;24.30;97.40
28947;DHT22;16052;50.930;5.326;2023-06-22T10:46:40;24.20;98.10
28947;DHT22;16052;50.930;5.326;2023-06-22T10:49:05;24.10;98.20
28947;DHT22;16052;50.930;5.326;2023-06-22T10:51:31;24.10;99.90
28947;DHT22;16052;50.930;5.326;2023-06-22T10:53:57;24.20;99.90
28947;DHT22;16052;50.930;5.326;2023-06-22T10:56:23;24.10;99.90
28947;DHT22;16052;50.930;5.326;2023-06-22T10:58:58;24.00;99.90
28947;DHT22;16052;50.930;5.326;2023-06-22T11:01:23;24.10;99.90
28947;DHT22;16052;50.930;5.326;2023-06-22T11:03:49;24.10;99.90
28947;DHT22;16052;50.930;5.326;2023-06-22T11:06:15;24.20;99.90
28947;DHT22;16052;50.930;5.326;2023-06-22T11:08:44;24.10;99.90
28947;DHT22;16052;50.930;5.326;2023-06-22T11:11:10;24.10;99.90
28947;DHT22;16052;50.930;5.326;2023-06-22T11:13:36;24.00;99.90
28947;DHT22;16052;50.930;5.326;2023-06-22T11:16:01;23.90;99.90
28947;DHT22;16052;50.930;5.326;2023-06-22T11:18:27;23.80;99.90
28947;DHT22;16052;50.930;5.326;2023-06-22T11:20:53;23.80;99.90
28947;DHT22;16052;50.930;5.326;2023-06-22T11:23:18;23.90;99.90
28947;DHT22;16052;50.930;5.326;2023-06-22T11:25:44;23.90;99.90
28947;DHT22;16052;50.930;5.326;2023-06-22T11:28:11;24.00;99.90
28947;DHT22;16052;50.930;5.326;2023-06-22T11:30:37;24.10;99.90
28947;DHT22;16052;50.930;5.326;2023-06-22T11:33:03;24.20;99.90
28947;DHT22;16052;50.930;5.326;2023-06-22T11:35:28;24.10;99.90
28947;DHT22;16052;50.930;5.326;2023-06-22T11:37:54;24.10;99.90
28947;DHT22;16052;50.930;5.326;2023-06-22T11:40:21;24.10;99.90
28947;DHT22;16052;50.930;5.326;2023-06-22T11:42:48;23.90;99.90
28947;DHT22;16052;50.930;5.326;2023-06-22T11:45:14;23.90;99.90
28947;DHT22;16052;50.930;5.326;2023-06-22T11:47:39;23.90;99.90
28947;DHT22;16052;50.930;5.326;2023-06-22T11:50:06;23.90;99.90
28947;DHT22;16052;50.930;5.326;2023-06-22T11:52:33;23.80;99.90
28947;DHT22;16052;50.930;5.326;2023-06-22T11:54:59;23.70;99.90
28947;DHT22;16052;50.930;5.326;2023-06-22T11:57:25;23.50;99.90
28947;DHT22;16052;50.930;5.326;2023-06-22T11:59:51;23.60;99.90
28947;DHT22;16052;50.930;5.326;2023-06-22T12:02:17;23.60;99.90
28947;DHT22;16052;50.930;5.326;2023-06-22T12:04:42;23.70;99.90
28947;DHT22;16052;50.930;5.326;2023-06-22T12:07:08;23.60;99.90
28947;DHT22;16052;50.930;5.326;2023-06-22T12:09:34;23.50;99.90
28947;DHT22;16052;50.930;5.326;2023-06-22T12:11:59;23.40;99.90
28947;DHT22;16052;50.930;5.326;2023-06-22T12:14:25;23.30;99.90
28947;DHT22;16052;50.930;5.326;2023-06-22T12:16:51;23.30;99.90
28947;DHT22;16052;50.930;5.326;2023-06-22T12:19:16;23.20;99.90
28947;DHT22;16052;50.930;5.326;2023-06-22T12:21:42;23.30;99.90
28947;DHT22;16052;50.930;5.326;2023-06-22T12:24:10;23.20;99.90
28947;DHT22;16052;50.930;5.326;2023-06-22T12:26:36;23.20;99.90
28947;DHT22;16052;50.930;5.326;2023-06-22T12:29:02;23.20;99.90
28947;DHT22;16052;50.930;5.326;2023-06-22T12:31:27;23.30;99.90
28947;DHT22;16052;50.930;5.326;2023-06-22T12:33:53;23.20;99.90
28947;DHT22;16052;50.930;5.326;2023-06-22T12:36:19;23.10;99.90
28947;DHT22;16052;50.930;5.326;2023-06-22T12:38:44;23.00;99.90
28947;DHT22;16052;50.930;5.326;2023-06-22T12:41:10;23.00;99.90
28947;DHT22;16052;50.930;5.326;2023-06-22T12:43:36;22.90;99.90
28947;DHT22;16052;50.930;5.326;2023-06-22T12:46:01;22.80;99.90
28947;DHT22;16052;50.930;5.326;2023-06-22T12:48:27;22.80;99.90
28947;DHT22;16052;50.930;5.326;2023-06-22T12:50:53;22.80;99.90
28947;DHT22;16052;50.930;5.326;2023-06-22T12:53:19;22.70;99.90
28947;DHT22;16052;50.930;5.326;2023-06-22T12:55:44;22.70;99.90
28947;DHT22;16052;50.930;5.326;2023-06-22T12:58:10;22.70;99.90
28947;DHT22;16052;50.930;5.326;2023-06-22T13:00:37;22.70;99.90
28947;DHT22;16052;50.930;5.326;2023-06-22T13:03:03;22.70;99.90
28947;DHT22;16052;50.930;5.326;2023-06-22T13:05:29;22.60;99.90
28947;DHT22;16052;50.930;5.326;2023-06-22T13:07:55;22.60;99.90
28947;DHT22;16052;50.930;5.326;2023-06-22T13:10:21;22.50;99.90
28947;DHT22;16052;50.930;5.326;2023-06-22T13:12:47;22.40;99.90
28947;DHT22;16052;50.930;5.326;2023-06-22T13:15:12;22.40;99.90
28947;DHT22;16052;50.930;5.326;2023-06-22T13:17:38;22.30;99.90
28947;DHT22;16052;50.930;5.326;2023-06-22T13:20:05;22.30;99.90
28947;DHT22;16052;50.930;5.326;2023-06-22T13:22:32;22.40;99.90
28947;DHT22;16052;50.930;5.326;2023-06-22T13:24:59;22.20;99.90
28947;DHT22;16052;50.930;5.326;2023-06-22T13:27:25;22.20;99.90
28947;DHT22;16052;50.930;5.326;2023-06-22T13:29:52;22.20;99.90
28947;DHT22;16052;50.930;5.326;2023-06-22T13:32:18;22.20;99.90
28947;DHT22;16052;50.930;5.326;2023-06-22T13:34:43;22.10;99.90
28947;DHT22;16052;50.930;5.326;2023-06-22T13:37:09;22.20;99.90
28947;DHT22;16052;50.930;5.326;2023-06-22T13:39:35;22.00;99.90
28947;DHT22;16052;50.930;5.326;2023-06-22T13:42:01;22.00;99.90
28947;DHT22;16052;50.930;5.326;2023-06-22T13:44:27;21.90;99.90
28947;DHT22;16052;50.930;5.326;2023-06-22T13:46:55;21.80;99.90
28947;DHT22;16052;50.930;5.326;2023-06-22T13:49:20;21.80;99.90
28947;DHT22;16052;50.930;5.326;2023-06-22T13:51:47;21.80;99.90
28947;DHT22;16052;50.930;5.326;2023-06-22T13:54:14;21.80;99.90
28947;DHT22;16052;50.930;5.326;2023-06-22T13:56:39;21.80;99.90
28947;DHT22;16052;50.930;5.326;2023-06-22T13:59:05;21.80;99.90
28947;DHT22;16052;50.930;5.326;2023-06-22T14:01:33;21.80;99.90
28947;DHT22;16052;50.930;5.326;2023-06-22T14:03:58;21.80;99.90
28947;DHT22;16052;50.930;5.326;2023-06-22T14:06:24;21.80;99.90
28947;DHT22;16052;50.930;5.326;2023-06-22T14:08:49;21.70;99.90
28947;DHT22;16052;50.930;5.326;2023-06-22T14:11:16;21.70;99.90
28947;DHT22;16052;50.930;5.326;2023-06-22T14:13:42;21.50;99.90
28947;DHT22;16052;50.930;5.326;2023-06-22T14:16:08;21.60;99.90
28947;DHT22;16052;50.930;5.326;2023-06-22T14:18:34;21.60;99.90
28947;DHT22;16052;50.930;5.326;2023-06-22T14:21:02;21.60;99.90
28947;DHT22;16052;50.930;5.326;2023-06-22T14:23:28;21.70;99.90
28947;DHT22;16052;50.930;5.326;2023-06-22T14:25:54;21.60;99.90
28947;DHT22;16052;50.930;5.326;2023-06-22T14:28:19;21.50;99.90
28947;DHT22;16052;50.930;5.326;2023-06-22T14:30:45;21.40;99.90
28947;DHT22;16052;50.930;5.326;2023-06-22T14:33:12;21.40;99.90
28947;DHT22;16052;50.930;5.326;2023-06-22T14:35:37;21.30;99.90
28947;DHT22;16052;50.930;5.326;2023-06-22T14:38:03;21.30;99.90
28947;DHT22;16052;50.930;5.326;2023-06-22T14:40:29;21.10;99.90
28947;DHT22;16052;50.930;5.326;2023-06-22T14:42:54;21.10;99.90
28947;DHT22;16052;50.930;5.326;2023-06-22T14:45:23;21.00;99.90
28947;DHT22;16052;50.930;5.326;2023-06-22T14:47:49;21.00;99.90
28947;DHT22;16052;50.930;5.326;2023-06-22T14:50:14;21.00;99.90
28947;DHT22;16052;50.930;5.326;2023-06-22T14:52:40;21.00;99.90
28947;DHT22;16052;50.930;5.326;2023-06-22T14:55:06;20.90;99.90
28947;DHT22;16052;50.930;5.326;2023-06-22T14:57:33;21.00;99.90
28947;DHT22;16052;50.930;5.326;2023-06-22T14:59:59;21.00;99.90
28947;DHT22;16052;50.930;5.326;2023-06-22T15:02:27;21.00;99.90
28947;DHT22;16052;50.930;5.326;2023-06-22T15:04:52;21.00;99.90
28947;DHT22;16052;50.930;5.326;2023-06-22T15:07:21;20.90;99.90
28947;DHT22;16052;50.930;5.326;2023-06-22T15:09:47;20.80;99.90
28947;DHT22;16052;50.930;5.326;2023-06-22T15:12:13;20.90;99.90
28947;DHT22;16052;50.930;5.326;2023-06-22T15:14:41;21.10;99.90
28947;DHT22;16052;50.930;5.326;2023-06-22T15:17:08;21.20;99.90
28947;DHT22;16052;50.930;5.326;2023-06-22T15:19:39;21.10;99.90
28947;DHT22;16052;50.930;5.326;2023-06-22T15:22:06;20.90;99.90
28947;DHT22;16052;50.930;5.326;2023-06-22T15:24:32;20.90;99.90
28947;DHT22;16052;50.930;5.326;2023-06-22T15:26:58;20.80;99.90
28947;DHT22;16052;50.930;5.326;2023-06-22T15:29:24;20.80;99.90
28947;DHT22;16052;50.930;5.326;2023-06-22T15:31:51;20.80;99.90
28947;DHT22;16052;50.930;5.326;2023-06-22T15:34:17;20.80;99.90
28947;DHT22;16052;50.930;5.326;2023-06-22T15:36:43;20.80;99.90
28947;DHT22;16052;50.930;5.326;2023-06-22T15:39:09;20.60;99.90